地図

経路データ

SID SEASON NUMBER BASIN SUBBASIN NAME ISO_TIME NATURE LAT LON WMO_WIND WMO_PRES WMO_AGENCY TRACK_TYPE DIST2LAND LANDFALL IFLAG USA_AGENCY USA_ATCF_ID USA_LAT USA_LON USA_RECORD USA_STATUS USA_WIND USA_PRES USA_SSHS USA_R34_NE USA_R34_SE USA_R34_SW USA_R34_NW USA_R50_NE USA_R50_SE USA_R50_SW USA_R50_NW USA_R64_NE USA_R64_SE USA_R64_SW USA_R64_NW USA_POCI USA_ROCI USA_RMW USA_EYE TOKYO_LAT TOKYO_LON TOKYO_GRADE TOKYO_WIND TOKYO_PRES TOKYO_R50_DIR TOKYO_R50_LONG TOKYO_R50_SHORT TOKYO_R30_DIR TOKYO_R30_LONG TOKYO_R30_SHORT TOKYO_LAND CMA_LAT CMA_LON CMA_CAT CMA_WIND CMA_PRES HKO_LAT HKO_LON HKO_CAT HKO_WIND HKO_PRES NEWDELHI_LAT NEWDELHI_LON NEWDELHI_GRADE NEWDELHI_WIND NEWDELHI_PRES NEWDELHI_CI NEWDELHI_DP NEWDELHI_POCI REUNION_LAT REUNION_LON REUNION_TYPE REUNION_WIND REUNION_PRES REUNION_TNUM REUNION_CI REUNION_RMW REUNION_R34_NE REUNION_R34_SE REUNION_R34_SW REUNION_R34_NW REUNION_R50_NE REUNION_R50_SE REUNION_R50_SW REUNION_R50_NW REUNION_R64_NE REUNION_R64_SE REUNION_R64_SW REUNION_R64_NW BOM_LAT BOM_LON BOM_TYPE BOM_WIND BOM_PRES BOM_TNUM BOM_CI BOM_RMW BOM_R34_NE BOM_R34_SE BOM_R34_SW BOM_R34_NW BOM_R50_NE BOM_R50_SE BOM_R50_SW BOM_R50_NW BOM_R64_NE BOM_R64_SE BOM_R64_SW BOM_R64_NW BOM_ROCI BOM_POCI BOM_EYE BOM_POS_METHOD BOM_PRES_METHOD NADI_LAT NADI_LON NADI_CAT NADI_WIND NADI_PRES WELLINGTON_LAT WELLINGTON_LON WELLINGTON_WIND WELLINGTON_PRES DS824_LAT DS824_LON DS824_STAGE DS824_WIND DS824_PRES TD9636_LAT TD9636_LON TD9636_STAGE TD9636_WIND TD9636_PRES TD9635_LAT TD9635_LON TD9635_WIND TD9635_PRES TD9635_ROCI NEUMANN_LAT NEUMANN_LON NEUMANN_CLASS NEUMANN_WIND NEUMANN_PRES MLC_LAT MLC_LON MLC_CLASS MLC_WIND MLC_PRES USA_GUST BOM_GUST BOM_GUST_PER REUNION_GUST REUNION_GUST_PER USA_SEAHGT USA_SEARAD_NE USA_SEARAD_SE USA_SEARAD_SW USA_SEARAD_NW STORM_SPEED STORM_DIR
1948360S08071 1949 94 SI MM NOT_NAMED 1948-12-25 06:00:00 TS -7.90000 71.2000 main 1856 1856 O________OO___ jtwc_sh SH051949 -7.90000 71.2000 -1 -7.90000 71.2000 TC 25 -7.90000 71.2000 7 6 210
1948360S08071 1949 94 SI MM NOT_NAMED 1948-12-25 09:00:00 TS -8.15096 71.0491 main 1896 1896 P________PP___ SH051949 -8.16001 71.0525 -1 -8.16001 71.0525 TC 25 -8.13287 71.0424 7 6 212
1948360S08071 1949 94 SI MM NOT_NAMED 1948-12-25 12:00:00 TS -8.38752 70.8959 main 1921 1900 O________OP___ jtwc_sh SH051949 -8.40000 70.9000 -1 -8.40000 70.9000 TC 25 -8.36257 70.8877 7 5 214
1948360S08071 1949 94 SI MM NOT_NAMED 1948-12-25 15:00:00 TS -8.60033 70.7414 main 1900 1877 P________PP___ SH051949 -8.60750 70.7425 -1 -8.60750 70.7425 TC 30 -8.58598 70.7392 7 5 216
1948360S08071 1949 94 SI MM NOT_NAMED 1948-12-25 18:00:00 TS -8.80000 70.6000 main 1877 1853 O________OO___ jtwc_sh SH051949 -8.80000 70.6000 -1 -8.80000 70.6000 TC 35 -8.80000 70.6000 2 5 212
1948360S08071 1949 94 SI MM NOT_NAMED 1948-12-25 21:00:00 TS -9.00102 70.4906 main 1853 1830 P________PP___ SH051949 -8.99998 70.5000 -1 -8.99998 70.5000 TC 35 -9.00309 70.4718 2 5 208
1948360S08071 1949 94 SI MM NOT_NAMED 1948-12-26 00:00:00 TS -9.19998 70.3833 main 1830 1806 O________OP___ jtwc_sh SH051949 -9.20000 70.4000 -1 -9.20000 70.4000 TC 35 -9.19995 70.3499 2 5 211
1948360S08071 1949 94 SI MM NOT_NAMED 1948-12-26 03:00:00 TS -9.39895 70.2477 main 1798 1775 P________PP___ SH051949 -9.40000 70.2575 -1 -9.40000 70.2575 TC 35 -9.39684 70.2280 2 5 215
1948360S08071 1949 94 SI MM NOT_NAMED 1948-12-26 06:00:00 TS -9.60000 70.1000 main 1775 1752 O________OO___ jtwc_sh SH051949 -9.60000 70.1000 -1 -9.60000 70.1000 TC 35 -9.60000 70.1000 2 5 216
1948360S08071 1949 94 SI MM NOT_NAMED 1948-12-26 09:00:00 TS -9.80094 69.9510 main 1752 1721 P________PP___ SH051949 -9.79249 69.9500 -1 -9.79249 69.9500 TC 35 -9.81782 69.9531 2 5 216
1948360S08071 1949 94 SI MM NOT_NAMED 1948-12-26 12:00:00 TS -10.0142 69.8000 main 1721 1697 O________OP___ jtwc_sh SH051949 -10.0000 69.8000 -1 -10.0000 69.8000 TC 35 -10.0425 69.8000 2 5 213
1948360S08071 1949 94 SI MM NOT_NAMED 1948-12-26 15:00:00 TS -10.2570 69.6490 main 1682 1659 P________PP___ SH051949 -10.2500 69.6500 -1 -10.2500 69.6500 TC 35 -10.2709 69.6469 2 6 211
1948360S08071 1949 94 SI MM NOT_NAMED 1948-12-26 18:00:00 TS -10.5000 69.5000 main 1659 1636 O________OO___ jtwc_sh SH051949 -10.5000 69.5000 -1 -10.5000 69.5000 TC 35 -10.5000 69.5000 2 5 213
1948360S08071 1949 94 SI MM NOT_NAMED 1948-12-26 21:00:00 TS -10.7124 69.3496 main 1627 1604 P________PP___ SH051949 -10.7000 69.3425 -1 -10.7000 69.3425 TC 35 -10.7372 69.3637 2 5 214
1948360S08071 1949 94 SI MM NOT_NAMED 1948-12-27 00:00:00 TS -10.9242 69.2117 main 1604 1574 O________OP___ jtwc_sh SH051949 -10.9000 69.2000 -1 -10.9000 69.2000 TC 35 -10.9725 69.2350 2 5 208
1948360S08071 1949 94 SI MM NOT_NAMED 1948-12-27 03:00:00 TS -11.1705 69.0996 main 1574 1551 P________PP___ SH051949 -11.1575 69.0925 -1 -11.1575 69.0925 TC 35 -11.1965 69.1137 2 5 204
1948360S08071 1949 94 SI MM NOT_NAMED 1948-12-27 06:00:00 TS -11.4000 69.0000 main 1551 1528 O________OO___ jtwc_sh SH051949 -11.4000 69.0000 -1 -11.4000 69.0000 TC 35 -11.4000 69.0000 2 4 206
1948360S08071 1949 94 SI MM NOT_NAMED 1948-12-27 09:00:00 TS -11.5685 68.8976 main 1528 1513 P________PP___ SH051949 -11.5650 68.9000 -1 -11.5650 68.9000 TC 35 -11.5756 68.8927 2 4 212
1948360S08071 1949 94 SI MM NOT_NAMED 1948-12-27 12:00:00 TS -11.7100 68.7975 main 1513 1497 O________OP___ jtwc_sh SH051949 -11.7000 68.8000 -1 -11.7000 68.8000 TC 35 -11.7300 68.7924 2 3 214
1948360S08071 1949 94 SI MM NOT_NAMED 1948-12-27 15:00:00 TS -11.8564 68.6986 main 1490 1475 P________PP___ SH051949 -11.8500 68.7000 -1 -11.8500 68.7000 TC 35 -11.8693 68.6959 2 4 214
1948360S08071 1949 94 SI MM NOT_NAMED 1948-12-27 18:00:00 TS -12.0000 68.6000 main 1475 1459 O________OO___ jtwc_sh SH051949 -12.0000 68.6000 -1 -12.0000 68.6000 TC 35 -12.0000 68.6000 2 4 212
1948360S08071 1949 94 SI MM NOT_NAMED 1948-12-27 21:00:00 TS -12.1531 68.5041 main 1452 1437 P________PP___ SH051949 -12.1575 68.5000 -1 -12.1575 68.5000 TC 35 -12.1443 68.5122 2 4 213
1948360S08071 1949 94 SI MM NOT_NAMED 1948-12-28 00:00:00 TS -12.2933 68.4075 main 1437 1421 O________OP___ jtwc_sh SH051949 -12.3000 68.4000 -1 -12.3000 68.4000 TC 35 -12.2799 68.4225 2 3 216
1948360S08071 1949 94 SI MM NOT_NAMED 1948-12-28 03:00:00 TS -12.4102 68.3122 main 1421 1406 P________PP___ SH051949 -12.4150 68.3075 -1 -12.4150 68.3075 TC 35 -12.4006 68.3215 2 3 224
1948360S08071 1949 94 SI MM NOT_NAMED 1948-12-28 06:00:00 TS -12.5000 68.2000 main 1406 1390 O________OO___ jtwc_sh SH051949 -12.5000 68.2000 -1 -12.5000 68.2000 TC 35 -12.5000 68.2000 2 3 239
1948360S08071 1949 94 SI MM NOT_NAMED 1948-12-28 09:00:00 TS -12.5608 68.0561 main 1390 1373 P________PP___ SH051949 -12.5575 68.0650 -1 -12.5575 68.0650 TC 35 -12.5676 68.0384 2 3 251
1948360S08071 1949 94 SI MM NOT_NAMED 1948-12-28 12:00:00 TS -12.6050 67.8858 main 1373 1356 O________OP___ jtwc_sh SH051949 -12.6000 67.9000 -1 -12.6000 67.9000 TC 35 -12.6151 67.8574 2 4 257
1948360S08071 1949 94 SI MM NOT_NAMED 1948-12-28 15:00:00 TS -12.6467 67.6859 main 1356 1333 P________PP___ SH051949 -12.6425 67.6925 -1 -12.6425 67.6925 TC 35 -12.6551 67.6728 2 4 256
1948360S08071 1949 94 SI MM NOT_NAMED 1948-12-28 18:00:00 TS -12.7000 67.5000 main 1333 1317 O________OO___ jtwc_sh SH051949 -12.7000 67.5000 -1 -12.7000 67.5000 TC 35 -12.7000 67.5000 2 3 244
1948360S08071 1949 94 SI MM NOT_NAMED 1948-12-28 21:00:00 TS -12.7919 67.3819 main 1317 1302 P________PP___ SH051949 -12.8000 67.3925 -1 -12.8000 67.3925 TC 35 -12.7759 67.3606 2 3 229
1948360S08071 1949 94 SI MM NOT_NAMED 1948-12-29 00:00:00 TS -12.8858 67.2783 main 1302 1285 O________OP___ jtwc_sh SH051949 -12.9000 67.3000 -1 -12.9000 67.3000 TC 35 -12.8574 67.2350 2 3 236
1948360S08071 1949 94 SI MM NOT_NAMED 1948-12-29 03:00:00 TS -12.9501 67.1390 main 1278 1269 P________PP___ SH051949 -12.9575 67.1500 -1 -12.9575 67.1500 TC 35 -12.9353 67.1169 2 3 247
1948360S08071 1949 94 SI MM NOT_NAMED 1948-12-29 06:00:00 TS -13.0000 67.0000 main 1269 1254 O________OO___ jtwc_sh SH051949 -13.0000 67.0000 -1 -13.0000 67.0000 TC 35 -13.0000 67.0000 2 3 247
1948360S08071 1949 94 SI MM NOT_NAMED 1948-12-29 09:00:00 TS -13.0528 66.8930 main 1254 1246 P________PP___ SH051949 -13.0575 66.9000 -1 -13.0575 66.9000 TC 35 -13.0434 66.8790 2 2 246
1948360S08071 1949 94 SI MM NOT_NAMED 1948-12-29 12:00:00 TS -13.0908 66.7858 main 1246 1237 O________OP___ jtwc_sh SH051949 -13.1000 66.8000 -1 -13.1000 66.8000 TC 35 -13.0725 66.7575 2 2 258
1948360S08071 1949 94 SI MM NOT_NAMED 1948-12-29 15:00:00 TS -13.1018 66.6491 main 1229 1221 P________PP___ SH051949 -13.1075 66.6575 -1 -13.1075 66.6575 TC 35 -13.0903 66.6322 2 3 268
1948360S08071 1949 94 SI MM NOT_NAMED 1948-12-29 18:00:00 TS -13.1000 66.5000 main 1221 1213 O________OO___ jtwc_sh SH051949 -13.1000 66.5000 -1 -13.1000 66.5000 TC 35 -13.1000 66.5000 2 3 270
1948360S08071 1949 94 SI MM NOT_NAMED 1948-12-29 21:00:00 TS -13.1010 66.3497 main 1205 1197 P________PP___ SH051949 -13.1000 66.3500 -1 -13.1000 66.3500 TC 35 -13.1031 66.3490 2 3 270
1948360S08071 1949 94 SI MM NOT_NAMED 1948-12-30 00:00:00 TS -13.1000 66.1975 main 1197 1181 O________OP___ jtwc_sh SH051949 -13.1000 66.2000 -1 -13.1000 66.2000 TC 35 -13.1000 66.1925 2 3 270
1948360S08071 1949 94 SI MM NOT_NAMED 1948-12-30 03:00:00 TS -13.0990 66.0415 main 1181 1173 P________PP___ SH051949 -13.1000 66.0425 -1 -13.1000 66.0425 TC 50 -13.0969 66.0397 2 3 270
1948360S08071 1949 94 SI MM NOT_NAMED 1948-12-30 06:00:00 TS -13.1000 65.9000 main 1173 1165 O________OO___ jtwc_sh SH051949 -13.1000 65.9000 -1 -13.1000 65.9000 TC 65 -13.1000 65.9000 4 2 270
1948360S08071 1949 94 SI MM NOT_NAMED 1948-12-30 09:00:00 TS -13.1009 65.7902 main 1165 1157 P________PP___ SH051949 -13.0925 65.7925 -1 -13.0925 65.7925 TC 65 -13.1178 65.7856 4 2 266
1948360S08071 1949 94 SI MM NOT_NAMED 1948-12-30 12:00:00 TS -13.1141 65.6950 main 1157 1141 O________OP___ jtwc_sh SH051949 -13.1000 65.7000 -1 -13.1000 65.7000 TC 65 -13.1424 65.6850 4 2 254
1948360S08071 1949 94 SI MM NOT_NAMED 1948-12-30 15:00:00 TS -13.1570 65.5973 main 1141 1134 P________PP___ SH051949 -13.1500 65.6000 -1 -13.1500 65.6000 TC 65 -13.1709 65.5919 4 2 246
1948360S08071 1949 94 SI MM NOT_NAMED 1948-12-30 18:00:00 TS -13.2000 65.5000 main 1134 1126 O________OO___ jtwc_sh SH051949 -13.2000 65.5000 -1 -13.2000 65.5000 TC 65 -13.2000 65.5000 4 2 255
1948360S08071 1949 94 SI MM NOT_NAMED 1948-12-30 21:00:00 TS -13.2083 65.4013 main 1126 1118 P________PP___ SH051949 -13.2000 65.4000 -1 -13.2000 65.4000 TC 65 -13.2250 65.4041 4 2 265
1948360S08071 1949 94 SI MM NOT_NAMED 1948-12-31 00:00:00 TS -13.2167 65.3025 main 1118 1102 O________OP___ jtwc_sh SH051949 -13.2000 65.3000 -1 -13.2000 65.3000 TC 65 -13.2500 65.3075 4 2 257
1948360S08071 1949 94 SI MM NOT_NAMED 1948-12-31 03:00:00 TS -13.2533 65.2024 main 1102 1095 P________PP___ SH051949 -13.2425 65.2000 -1 -13.2425 65.2000 TC 65 -13.2750 65.2072 4 2 247
1948360S08071 1949 94 SI MM NOT_NAMED 1948-12-31 06:00:00 TS -13.3000 65.1000 main 1095 1087 O________OO___ jtwc_sh SH051949 -13.3000 65.1000 -1 -13.3000 65.1000 TC 65 -13.3000 65.1000 4 2 245
1948360S08071 1949 94 SI MM NOT_NAMED 1948-12-31 09:00:00 TS -13.3480 64.9991 main 1087 1072 P________PP___ SH051949 -13.3575 65.0075 -1 -13.3575 65.0075 TC 65 -13.3291 64.9822 4 2 248
1948360S08071 1949 94 SI MM NOT_NAMED 1948-12-31 12:00:00 TS -13.3858 64.8858 main 1072 1064 O________OP___ jtwc_sh SH051949 -13.4000 64.9000 -1 -13.4000 64.9000 TC 65 -13.3575 64.8575 4 3 259
1948360S08071 1949 94 SI MM NOT_NAMED 1948-12-31 15:00:00 TS -13.3991 64.7430 main 1056 1049 P________PP___ SH051949 -13.4075 64.7500 -1 -13.4075 64.7500 TC 65 -13.3822 64.7291 4 3 267
1948360S08071 1949 94 SI MM NOT_NAMED 1948-12-31 18:00:00 TS -13.4000 64.6000 main 1049 1042 O________OO___ jtwc_sh SH051949 -13.4000 64.6000 -1 -13.4000 64.6000 TC 65 -13.4000 64.6000 4 2 269
1948360S08071 1949 94 SI MM NOT_NAMED 1948-12-31 21:00:00 TS -13.4024 64.4930 main 1042 1034 P________PP___ SH051949 -13.4000 64.5000 -1 -13.4000 64.5000 TC 65 -13.4072 64.4790 4 2 269
1948360S08071 1949 94 SI MM NOT_NAMED 1949-01-01 00:00:00 TS -13.4025 64.3858 main 1034 1027 O________OP___ jtwc_sh SH051949 -13.4000 64.4000 -1 -13.4000 64.4000 TC 65 -13.4075 64.3575 4 2 270
1948360S08071 1949 94 SI MM NOT_NAMED 1949-01-01 03:00:00 TS -13.4013 64.2491 main 1020 1012 P________PP___ SH051949 -13.4000 64.2575 -1 -13.4000 64.2575 TC 65 -13.4040 64.2322 4 3 271
1948360S08071 1949 94 SI MM NOT_NAMED 1949-01-01 06:00:00 TS -13.4000 64.1000 main 1012 1005 O________OO___ jtwc_sh SH051949 -13.4000 64.1000 -1 -13.4000 64.1000 TC 65 -13.4000 64.1000 4 3 270
1948360S08071 1949 94 SI MM NOT_NAMED 1949-01-01 09:00:00 TS -13.4000 63.9510 main 1005 991 P________PP___ SH051949 -13.4000 63.9500 -1 -13.4000 63.9500 TC 65 -13.4000 63.9531 4 3 270
1948360S08071 1949 94 SI MM NOT_NAMED 1949-01-01 12:00:00 TS -13.4000 63.8000 main 991 984 O________OP___ jtwc_sh SH051949 -13.4000 63.8000 -1 -13.4000 63.8000 TC 65 -13.4000 63.8000 4 3 270
1948360S08071 1949 94 SI MM NOT_NAMED 1949-01-01 15:00:00 TS -13.4000 63.6440 main 977 971 P________PP___ SH051949 -13.4000 63.6425 -1 -13.4000 63.6425 TC 65 -13.4000 63.6469 4 3 270
1948360S08071 1949 94 SI MM NOT_NAMED 1949-01-01 18:00:00 TS -13.4000 63.5000 main 971 964 O________OO___ jtwc_sh SH051949 -13.4000 63.5000 -1 -13.4000 63.5000 TC 65 -13.4000 63.5000 4 2 270
1948360S08071 1949 94 SI MM NOT_NAMED 1949-01-01 21:00:00 TS -13.3986 63.3893 main 964 957 P________PP___ SH051949 -13.4000 63.4000 -1 -13.4000 63.4000 TC 65 -13.3959 63.3678 4 2 271
1948360S08071 1949 94 SI MM NOT_NAMED 1949-01-02 00:00:00 TS -13.3975 63.2808 main 957 944 O________OP___ jtwc_sh SH051949 -13.4000 63.3000 -1 -13.4000 63.3000 TC 65 -13.3925 63.2425 4 2 270
1948360S08071 1949 94 SI MM NOT_NAMED 1949-01-02 03:00:00 TS -13.3976 63.1403 main 944 938 P________PP___ SH051949 -13.4000 63.1500 -1 -13.4000 63.1500 TC 65 -13.3928 63.1209 4 3 269
1948360S08071 1949 94 SI MM NOT_NAMED 1949-01-02 06:00:00 TS -13.4000 63.0000 main 938 931 O________OO___ jtwc_sh SH051949 -13.4000 63.0000 -1 -13.4000 63.0000 TC 65 -13.4000 63.0000 4 2 269
1948360S08071 1949 94 SI MM NOT_NAMED 1949-01-02 09:00:00 TS -13.4023 62.8957 main 931 925 P________PP___ SH051949 -13.3925 62.9000 -1 -13.3925 62.9000 TC 65 -13.4218 62.8872 4 2 265
1948360S08071 1949 94 SI MM NOT_NAMED 1949-01-02 12:00:00 TS -13.4166 62.7908 main 925 910 O________OP___ jtwc_sh SH051949 -13.4000 62.8000 -1 -13.4000 62.8000 TC 65 -13.4499 62.7725 4 2 256
1948360S08071 1949 94 SI MM NOT_NAMED 1949-01-02 15:00:00 TS -13.4593 62.6589 main 910 897 P________PP___ SH051949 -13.4500 62.6650 -1 -13.4500 62.6650 TC 65 -13.4780 62.6466 4 3 253
1948360S08071 1949 94 SI MM NOT_NAMED 1949-01-02 18:00:00 TS -13.5000 62.5000 main 897 886 O________OO___ jtwc_sh SH051949 -13.5000 62.5000 -1 -13.5000 62.5000 TC 65 -13.5000 62.5000 4 3 262
1948360S08071 1949 94 SI MM NOT_NAMED 1949-01-02 21:00:00 TS -13.5061 62.3081 main 886 874 P________PP___ SH051949 -13.5075 62.3075 -1 -13.5075 62.3075 TC 65 -13.5032 62.3093 4 4 270
1948360S08071 1949 94 SI MM NOT_NAMED 1949-01-03 00:00:00 TS -13.5000 62.1000 main 874 863 O________OP___ jtwc_sh SH051949 -13.5000 62.1000 -1 -13.5000 62.1000 TC 65 -13.5001 62.0999 4 4 271
1948360S08071 1949 94 SI MM NOT_NAMED 1949-01-03 03:00:00 TS -13.4990 61.8869 main 863 852 P________PP___ SH051949 -13.5000 61.8850 -1 -13.5000 61.8850 TC 65 -13.4970 61.8906 4 4 270
1948360S08071 1949 94 SI MM NOT_NAMED 1949-01-03 06:00:00 TS -13.5000 61.7000 main 852 847 O________OO___ jtwc_sh SH051949 -13.5000 61.7000 -1 -13.5000 61.7000 TC 65 -13.5000 61.7000 4 3 270
1948360S08071 1949 94 SI MM NOT_NAMED 1949-01-03 09:00:00 TS -13.5009 61.5808 main 847 842 P________PP___ SH051949 -13.4925 61.5925 -1 -13.4925 61.5925 TC 65 -13.5177 61.5575 4 2 266
1948360S08071 1949 94 SI MM NOT_NAMED 1949-01-03 12:00:00 TS -13.5141 61.4783 main 842 827 O________OP___ jtwc_sh SH051949 -13.5000 61.5000 -1 -13.5000 61.5000 TC 65 -13.5424 61.4350 4 2 256
1948360S08071 1949 94 SI MM NOT_NAMED 1949-01-03 15:00:00 TS -13.5570 61.3450 main 822 817 P________PP___ SH051949 -13.5500 61.3575 -1 -13.5500 61.3575 TC 65 -13.5709 61.3200 4 3 252
1948360S08071 1949 94 SI MM NOT_NAMED 1949-01-03 18:00:00 TS -13.6000 61.2000 main 817 812 O________OO___ jtwc_sh SH051949 -13.6000 61.2000 -1 -13.6000 61.2000 TC 65 -13.6000 61.2000 4 3 260
1948360S08071 1949 94 SI MM NOT_NAMED 1949-01-03 21:00:00 TS -13.6083 61.0524 main 812 803 P________PP___ SH051949 -13.6000 61.0500 -1 -13.6000 61.0500 TC 65 -13.6250 61.0572 4 3 267
1948360S08071 1949 94 SI MM NOT_NAMED 1949-01-04 00:00:00 TS -13.6167 60.9025 main 803 788 O________OP___ jtwc_sh SH051949 -13.6000 60.9000 -1 -13.6000 60.9000 TC 65 -13.6500 60.9075 4 3 260
1948360S08071 1949 94 SI MM NOT_NAMED 1949-01-04 03:00:00 TS -13.6583 60.7514 main 788 779 P________PP___ SH051949 -13.6500 60.7500 -1 -13.6500 60.7500 TC 65 -13.6750 60.7541 4 3 253
1948360S08071 1949 94 SI MM NOT_NAMED 1949-01-04 06:00:00 TS -13.7154 60.5615 reunion main 779 771 O____O___OO___ jtwc_sh SH051949 -13.7000 60.6000 -1 -13.9000 60.1000 99 9.90000 -13.7000 60.6000 TC 65 -13.7000 60.6000 4 4 256
1948360S08071 1949 94 SI MM NOT_NAMED 1949-01-04 09:00:00 TS -13.7436 60.3924 main 771 753 P____P___PP___ SH051949 -13.7000 60.4500 -1 -13.9793 60.0634 99 -13.7000 60.4500 TC 65 -13.7128 60.4418 4 3 258
1948360S08071 1949 94 SI MM NOT_NAMED 1949-01-04 12:00:00 TS -13.7792 60.2413 main 753 749 O____P___OP___ jtwc_sh SH051949 -13.7000 60.3000 -1 -14.0594 60.0266 99 -13.7000 60.3000 TC 65 -13.7275 60.2849 4 3 250
1948360S08071 1949 94 SI MM NOT_NAMED 1949-01-04 15:00:00 TS -13.8449 60.1026 main 749 735 P____P___PP___ SH051949 -13.7425 60.1425 -1 -14.1410 59.9897 99 -13.7425 60.1425 TC 65 -13.7534 60.1356 4 3 243
1948360S08071 1949 94 SI MM NOT_NAMED 1949-01-04 18:00:00 TS -13.9062 59.9881 main 735 721 O____P___OO___ jtwc_sh SH051949 -13.8000 60.0000 -1 -14.2250 59.9526 99 -13.8000 60.0000 TC 65 -13.8000 60.0000 4 2 241
1948360S08071 1949 94 SI MM NOT_NAMED 1949-01-04 21:00:00 TS -13.9590 59.8924 main 721 718 P____P___PP___ SH051949 -13.8350 59.8925 -1 -14.3121 59.9151 99 -13.8350 59.8925 TC 65 -13.8541 59.8694 4 2 235
1948360S08071 1949 94 SI MM NOT_NAMED 1949-01-05 00:00:00 TS -14.0301 59.8072 main 718 693 O____P___OP___ jtwc_sh SH051949 -13.9000 59.8000 -1 -14.4031 59.8772 99 -13.9000 59.8000 TC 65 -13.9325 59.7551 4 3 220
1948360S08071 1949 94 SI MM NOT_NAMED 1949-01-05 03:00:00 TS -14.1682 59.7124 main 693 679 P____P___PP___ SH051949 -14.0200 59.6850 -1 -14.4988 59.8389 99 -14.0200 59.6850 TC 65 -14.0447 59.6632 4 3 207
1948360S08071 1949 94 SI MM NOT_NAMED 1949-01-05 06:00:00 TS -14.3391 59.6435 reunion main 679 658 O____O___OO___ jtwc_sh SH051949 -14.2000 59.6000 -1 -14.6000 59.8000 99 9.90000 -14.2000 59.6000 TC 65 -14.2000 59.6000 4 4 195
1948360S08071 1949 94 SI MM NOT_NAMED 1949-01-05 09:00:00 TS -14.5442 59.6052 main 658 636 P____P___PP___ SH051949 -14.4350 59.5850 -1 -14.7074 59.7606 99 -14.4350 59.5850 TC 65 -14.4109 59.5591 4 4 188
1948360S08071 1949 94 SI MM NOT_NAMED 1949-01-05 12:00:00 TS -14.7462 59.5850 main 636 615 O____P___OP___ jtwc_sh SH051949 -14.7000 59.6000 -1 -14.8219 59.7209 99 -14.7000 59.6000 TC 65 -14.6625 59.5475 4 4 187
1948360S08071 1949 94 SI MM NOT_NAMED 1949-01-05 15:00:00 TS -14.9406 59.5543 main 615 591 P____P___PP___ SH051949 -14.9575 59.5850 -1 -14.9442 59.6814 99 -14.9575 59.5850 TC 65 -14.9328 59.5622 4 4 189
1948360S08071 1949 94 SI MM NOT_NAMED 1949-01-05 18:00:00 TS -15.1393 59.5346 main 591 569 O____P___OO___ jtwc_sh SH051949 -15.2000 59.6000 -1 -15.0750 59.6425 99 -15.2000 59.6000 TC 65 -15.2000 59.6000 4 4 183
1948360S08071 1949 94 SI MM NOT_NAMED 1949-01-05 21:00:00 TS -15.3338 59.5431 main 569 552 P____P___PP___ SH051949 -15.4000 59.6925 -1 -15.2153 59.6045 99 -15.4000 59.6925 TC 65 -15.4322 59.6695 4 4 179
1948360S08071 1949 94 SI MM NOT_NAMED 1949-01-06 00:00:00 TS -15.5269 59.5596 main 552 531 O____P___OP___ jtwc_sh SH051949 -15.6000 59.8000 -1 -15.3657 59.5678 99 -15.6000 59.8000 TC 65 -15.6576 59.7572 4 4 0
1948360S08071 1949 94 SI MM NOT_NAMED 1949-01-06 03:00:00 TS -15.7199 59.5643 main 531 511 P____P___PP___ SH051949 -15.8500 59.8650 -1 -15.5270 59.5328 99 -15.8500 59.8650 TC 65 -15.8791 59.8414 4 4 182
1948360S08071 1949 94 SI MM NOT_NAMED 1949-01-06 06:00:00 TS -15.9143 59.5571 reunion main 511 486 O____O___OO___ jtwc_sh SH051949 -16.1000 59.9000 -1 -15.7000 59.5000 99 9.90000 -16.1000 59.9000 TC 65 -16.1000 59.9000 4 4 184
1948360S08071 1949 94 SI MM NOT_NAMED 1949-01-06 09:00:00 TS -16.1105 59.5333 main 486 465 P____P___PP___ SH051949 -16.3000 59.9150 -1 -15.8884 59.4722 99 -16.3000 59.9150 TC 65 -16.3331 59.8999 4 4 187
1948360S08071 1949 94 SI MM NOT_NAMED 1949-01-06 12:00:00 TS -16.3129 59.5017 main 465 445 O____P___OP___ jtwc_sh SH051949 -16.5000 59.9000 -1 -16.0900 59.4468 99 -16.5000 59.9000 TC 65 -16.5650 59.8727 4 4 188
1948360S08071 1949 94 SI MM NOT_NAMED 1949-01-06 15:00:00 TS -16.5288 59.4714 main 445 420 P____P___PP___ SH051949 -16.7575 59.8501 -1 -16.3016 59.4229 99 -16.7575 59.8501 TC 65 -16.7894 59.8342 4 4 188
1948360S08071 1949 94 SI MM NOT_NAMED 1949-01-06 18:00:00 TS -16.7457 59.4428 main 420 400 O____P___OO___ jtwc_sh SH051949 -17.0000 59.8000 -1 -16.5200 59.3998 99 -17.0000 59.8000 TC 65 -17.0000 59.8000 4 4 184
1948360S08071 1949 94 SI MM NOT_NAMED 1949-01-06 21:00:00 TS -16.9481 59.4219 main 400 380 P____P___PP___ SH051949 -17.1575 59.7925 -1 -16.7422 59.3768 99 -17.1575 59.7925 TC 65 -17.1650 59.8048 4 4 186
1948360S08071 1949 94 SI MM NOT_NAMED 1949-01-07 00:00:00 TS -17.1468 59.4025 main 380 360 O____P___OP___ jtwc_sh SH051949 -17.3000 59.8000 -1 -16.9650 59.3530 99 -17.3000 59.8000 TC 65 -17.3200 59.8147 4 4 186
1948360S08071 1949 94 SI MM NOT_NAMED 1949-01-07 03:00:00 TS -17.3456 59.3840 main 360 341 P____P___PP___ SH051949 -17.4775 59.8075 -1 -17.1853 59.3277 99 -17.4775 59.8075 TC 65 -17.4900 59.8173 4 4 187
1948360S08071 1949 94 SI MM NOT_NAMED 1949-01-07 06:00:00 TS -17.5571 59.3571 reunion main 331 307 O____O___OO___ jtwc_sh SH051949 -17.7000 59.8000 -1 -17.4000 59.3000 99 9.90000 -17.7000 59.8000 TC 65 -17.7000 59.8000 4 5 189
1948360S08071 1949 94 SI MM NOT_NAMED 1949-01-07 09:00:00 TS -17.7927 59.3157 main 307 288 P____P___PP___ SH051949 -17.9775 59.7650 -1 -17.5585 59.2800 99 -17.9775 59.7650 TC 65 -17.9900 59.7427 4 5 190
1948360S08071 1949 94 SI MM NOT_NAMED 1949-01-07 12:00:00 TS -18.0358 59.2618 main 288 255 O____P___OP___ jtwc_sh SH051949 -18.3000 59.7000 -1 -17.7081 59.2595 99 -18.3000 59.7000 TC 65 -18.3201 59.6653 4 5 194
1948360S08071 1949 94 SI MM NOT_NAMED 1949-01-07 15:00:00 TS -18.2651 59.1958 main 255 231 P____P___PP___ SH051949 -18.6575 59.6001 -1 -17.8574 59.2362 99 -18.6575 59.6001 TC 65 -18.6650 59.5802 4 5 196
1948360S08071 1949 94 SI MM NOT_NAMED 1949-01-07 18:00:00 TS -18.4879 59.1297 main 231 214 O____P___OO___ jtwc_sh SH051949 -19.0000 59.5000 -1 -18.0150 59.2080 99 -19.0000 59.5000 TC 65 -19.0000 59.5000 4 4 195
1948360S08071 1949 94 SI MM NOT_NAMED 1949-01-07 21:00:00 TS -18.6772 59.0799 main 214 191 P____P___PP___ SH051949 -19.2575 59.4424 -1 -18.1894 59.1726 99 -19.2575 59.4424 TC 50 -19.2568 59.4067 4 4 194
1948360S08071 1949 94 SI MM NOT_NAMED 1949-01-08 00:00:00 TS -18.8985 59.0261 main 191 161 O____P___OP___ jtwc_sh SH051949 -19.5000 59.4000 -1 -18.3893 59.1277 99 -19.5000 59.4000 TC 35 -19.5049 59.3258 4 5 194
1948360S08071 1949 94 SI MM NOT_NAMED 1949-01-08 03:00:00 TS -19.1946 58.9452 main 161 142 P____P___PP___ SH051949 -19.7700 59.3276 -1 -18.6233 59.0709 99 -19.7700 59.3276 TC 35 -19.7755 59.2820 4 7 192
1948360S08071 1949 94 SI MM NOT_NAMED 1949-01-08 06:00:00 TS -19.5714 58.8714 reunion main 137 109 O____O___OO___ jtwc_sh SH051949 -20.1000 59.3000 -1 -18.9000 59.0000 99 9.90000 -20.1000 59.3000 TC 35 -20.1000 59.3000 2 9 189
1948360S08071 1949 94 SI MM NOT_NAMED 1949-01-08 09:00:00 TS -20.0401 58.8157 main 109 104 P____P___PP___ SH051949 -20.5200 59.3551 -1 -19.2410 58.8533 99 -20.5200 59.3551 TC 35 -20.5378 59.3936 2 10 184
1948360S08071 1949 94 SI MM NOT_NAMED 1949-01-08 12:00:00 TS -20.5506 58.7922 main 109 109 O____P___OP___ jtwc_sh SH051949 -21.0000 59.5000 -1 -19.6237 58.6848 99 -21.0000 59.5000 TC 35 -21.0275 59.5519 2 10 181
1948360S08071 1949 94 SI MM NOT_NAMED 1949-01-08 15:00:00 TS -21.0480 58.8075 main 127 127 P____P___PP___ SH051949 -21.5151 59.7347 -1 -20.0409 58.5082 99 -21.5151 59.7347 TC 35 -21.5284 59.7594 2 10 177
1948360S08071 1949 94 SI MM NOT_NAMED 1949-01-08 18:00:00 TS -21.5265 58.8482 main 159 159 O____P___OO___ jtwc_sh SH051949 -22.0000 60.0000 -1 -20.4856 58.3376 99 -22.0000 60.0000 TC 35 -22.0000 60.0000 2 9 177
1948360S08071 1949 94 SI MM NOT_NAMED 1949-01-08 21:00:00 TS -21.9575 58.8653 main 208 208 P____P___PP___ SH051949 -22.3723 60.1854 -1 -20.9508 58.1870 99 -22.3723 60.1854 TC 35 -22.3567 60.1955 2 9 175
1948360S08071 1949 94 SI MM NOT_NAMED 1949-01-09 00:00:00 TS -22.3794 58.9214 main 246 246 O____P___OP___ jtwc_sh SH051949 -22.7000 60.4000 -1 -21.4295 58.0708 99 -22.7000 60.4000 TC 35 -22.6837 60.4258 2 9 169
1948360S08071 1949 94 SI MM NOT_NAMED 1949-01-09 03:00:00 TS -22.8095 59.0457 main 290 290 P____P___PP___ SH051949 -23.0273 60.6980 -1 -21.9149 58.0035 99 -23.0273 60.6980 TC 35 -23.0188 60.7181 2 9 161
1948360S08071 1949 94 SI MM NOT_NAMED 1949-01-09 06:00:00 TS -23.2714 59.2571 reunion main 353 353 O____O___OO___ jtwc_sh SH051949 -23.4000 61.1000 -1 -22.4000 58.0000 99 9.90000 -23.4000 61.1000 TC 35 -23.4000 61.1000 2 11 155
1948360S08071 1949 94 SI MM NOT_NAMED 1949-01-09 09:00:00 TS -23.8066 59.5610 main 417 417 P____P___PP___ SH051949 -23.8699 61.6052 -1 -22.9150 58.1317 99 -23.8699 61.6052 TC 30 -23.8873 61.5934 2 13 150
1948360S08071 1949 94 SI MM NOT_NAMED 1949-01-09 12:00:00 TS -24.3621 59.9453 main 491 491 O____P___OP___ jtwc_sh SH051949 -24.4000 62.2000 -1 -23.4420 58.3308 99 -24.4000 62.2000 TC 25 -24.4204 62.1789 2 13 146
1948360S08071 1949 94 SI MM NOT_NAMED 1949-01-09 15:00:00 TS -24.8977 60.3766 main 564 564 P____P___PP___ SH051949 -24.9574 62.8350 -1 -23.9674 58.5809 99 -24.9574 62.8350 TC 25 -24.9683 62.8251 2 14 137
1948360S08071 1949 94 SI MM NOT_NAMED 1949-01-09 18:00:00 TS -25.3581 60.9870 main 643 643 O____P___OO___ jtwc_sh SH051949 -25.5000 63.5000 -1 -24.4777 58.8654 99 -25.5000 63.5000 TC 25 -25.5000 63.5000 7 14 127
1948360S08071 1949 94 SI MM NOT_NAMED 1949-01-09 21:00:00 TS -25.7691 61.6512 main 719 719 P____P___PP___ SH051949 -25.9646 64.1433 -1 -24.9594 59.1673 99 -25.9646 64.1433 TC 25 -25.9923 64.1762 7 13 126
1948360S08071 1949 94 SI MM NOT_NAMED 1949-01-10 00:00:00 TS -26.1216 62.1459 main 770 770 O____P___OP___ jtwc_sh SH051949 -26.4000 64.8000 -1 -25.3991 59.4690 99 -26.4000 64.8000 TC 25 -26.4492 64.8501 7 11 127
1948360S08071 1949 94 SI MM NOT_NAMED 1949-01-10 03:00:00 TS -26.3986 62.5940 main 827 827 P____P___PP___ SH051949 -26.8458 65.4887 -1 -25.7837 59.7526 99 -26.8458 65.4887 TC 25 -26.8815 65.5239 7 5 162
1948360S08071 1949 94 SI MM NOT_NAMED 1949-01-10 06:00:00 TS -26.6125 62.3250 reunion main 827 700 O____O___OO___ jtwc_sh SH051949 -27.3000 66.2000 -1 -26.1000 60.0000 99 9.90000 -27.3000 66.2000 TC 25 -27.3000 66.2000 7 21 272
1948360S08071 1949 94 SI MM NOT_NAMED 1949-01-10 09:00:00 NR -26.3391 60.1968 main 696 692 _____P________ SH051949 -1 -26.3391 60.1968 99 TC 7 18 273
1948360S08071 1949 94 SI MM NOT_NAMED 1949-01-10 12:00:00 NR -26.5073 60.3453 main 720 720 _____P________ -1 -26.5073 60.3453 99 7 4 140
1948360S08071 1949 94 SI MM NOT_NAMED 1949-01-10 15:00:00 NR -26.6151 60.4521 main 738 738 _____P________ -1 -26.6151 60.4521 99 7 2 137
1948360S08071 1949 94 SI MM NOT_NAMED 1949-01-10 18:00:00 NR -26.6724 60.5238 main 749 749 _____P________ -1 -26.6724 60.5238 99 1 125
1948360S08071 1949 94 SI MM NOT_NAMED 1949-01-10 21:00:00 NR -26.6895 60.5675 main 753 753 _____P________ -1 -26.6895 60.5675 99 1 94
1948360S08071 1949 94 SI MM NOT_NAMED 1949-01-11 00:00:00 NR -26.6764 60.5901 main 753 742 _____P________ -1 -26.6764 60.5901 99 1 0
1948360S08071 1949 94 SI MM NOT_NAMED 1949-01-11 03:00:00 NR -26.6433 60.5986 main 742 742 _____P________ -1 -26.6433 60.5986 99 1 15
1948360S08071 1949 94 SI MM NOT_NAMED 1949-01-11 06:00:00 NR -26.6000 60.6000 reunion main 742 _____O________ -1 -26.6000 60.6000 99 9.90000 1 0

IBTrACS Databaseについて

本データベースは、米国NOAAが公開する1842年以降の世界の熱帯低気圧のベストトラックデータアーカイブInternational Best Track Archive for Climate Stewardship (IBTrACS)を、ウェブで閲覧しやすい形式に変換したものです。

最終更新日:2021-12-01